ウランバートル の空港の天気 - METARとTAF

チンギスハーン国際空港 ( ZMUB / ULN ) - モンゴル ウランバートル
飛行場実況気象(Metar)
観測時間02/28 08:30 ULAT (02/28 00:30 UTC)
風向・風速静穏 0m/s
視程10km以上
天気現象
なし
気温-16℃
湿度71%
気圧1024hPa
METARZMUB 280030Z 00000MPS CAVOK M16/M20 Q1024 NOSIG RMK QFE659.8 73
過去の天気等 Google飛行場航空写真 Wunderground天気予報

過去48時間のMETAR

飛行場予報(TAF)
発表時間: 2/28 06:40 ULAT (2/27 22:40 UTC)
予報対象時間: 28日8時 ULAT ~ 1日14時 ULAT
風向・風速不定 2m/s
視程6,000m
全天の4割程度の雲 雲底高度 3,050m
28日10時 ULAT ~ 28日12時 ULAT に徐々に
風向・風速北西 6m/s
視程10km以上
天気現象運行に影響にある天気現象が終了
28日18時 ULAT ~ 28日20時 ULAT に徐々に
風向・風速不定 2m/s
なし
1日2時 ULAT ~ 1日4時 ULAT に徐々に
視程6,000m
TAF ZMUB 272240Z 2800/0106 VRB02MPS 6000 SCT100 TXM09/2807Z TNM21/2823Z
BECMG 2802/2804 32006MPS 9999 NSW
BECMG 2810/2812 VRB02MPS NSC
BECMG 2818/2820 6000